Merriam, Kansas
Current Conditions -  °F | °C
As of 10:07 AM on Thursday 23 Oct 2014 (Local Time) from KMKC Reporting Station
Broken Clouds Broken Clouds  
Wind Chill: 63°   Ceiling: 3500
Heat Index: 63°   Visibility: 7mi
Dew Point: 59°   Wind: 8mph
Humidity: 87%   Direction: 190°S
Pressure: 30.09"   Gusts: NA
Location:  38.993°N, 94.6774°W
Report Text: KMKC 231507Z 19007KT 7SM FEW013 BKN035 17/15 A3009 RMK AO2 T01720150
Loading
Personal Weather Stations






























Interactive Weather Map
Tropical Storm Tracking
New forecast layout! Learn more

10-Day Weather Forecast

Advertisements
Track Severe Weather on mobile